This is the latest recevied weather packets stored in our database for station/object KB1FFS. If no packets are shown the sender has not sent any weather packets the latest 10 day(s).
| Time | Temp. | Humidity | Pressure | Rain* | Wind** | Luminosity | Snow |
|---|---|---|---|---|---|---|---|
| 1777471310 | 16.11° C | 75% | 1017.2 hPa | 0 mm | - | 42 W/m² | - |
| 1777471006 | 16.11° C | 74% | 1017.1 hPa | 0 mm | - | 37 W/m² | - |
| 1777470704 | 16.11° C | 73% | 1017.2 hPa | 0 mm | - | 35 W/m² | - |
| 1777470399 | 16.11° C | 74% | 1016.9 hPa | 0 mm | - | 29 W/m² | - |
| 1777470097 | 16.11° C | 74% | 1016.9 hPa | 0 mm | - | 31 W/m² | - |
| 1777469793 | 16.11° C | 74% | 1016.7 hPa | 0 mm | - | 31 W/m² | - |
| 1777469489 | 16.11° C | 74% | 1016.7 hPa | 0 mm | - | 30 W/m² | - |
| 1777469188 | 16.11° C | 75% | 1017.1 hPa | 0 mm | - | 25 W/m² | - |
| 1777468882 | 16.11° C | 75% | 1016.5 hPa | 0 mm | - | 36 W/m² | - |
| 1777468580 | 16.11° C | 75% | 1016.5 hPa | 0 mm | - | 30 W/m² | - |
| 1777468276 | 16.11° C | 75% | 1016.7 hPa | 0 mm | - | 21 W/m² | - |
| 1777467973 | 16.11° C | 75% | 1016.6 hPa | 0 mm | - | 19 W/m² | - |
| 1777467669 | 16.11° C | 75% | 1016.9 hPa | 0 mm | - | 17 W/m² | - |
| 1777467364 | 16.11° C | 75% | 1016.5 hPa | 0 mm | - | 17 W/m² | - |
| 1777467060 | 16.11° C | 75% | 1016.7 hPa | 0 mm | - | 18 W/m² | - |
| 1777466757 | 16.11° C | 75% | 1016.6 hPa | 0 mm | - | 13 W/m² | - |
| 1777466455 | 16.11° C | 75% | 1016.3 hPa | 0 mm | - | 20 W/m² | - |
| 1777466151 | 16.11° C | 75% | 1016.4 hPa | 0 mm | - | 13 W/m² | - |
| 1777465847 | 16.11° C | 75% | 1016.3 hPa | 0 mm | - | 10 W/m² | - |
| 1777465543 | 16.11° C | 75% | 1016.3 hPa | 0 mm | - | 6 W/m² | - |
| 1777465238 | 16.11° C | 74% | 1016.1 hPa | 0 mm | - | 5 W/m² | - |
| 1777464933 | 16.67° C | 74% | 1016.1 hPa | 0 mm | - | 6 W/m² | - |
| 1777464628 | 16.67° C | 74% | 1016.1 hPa | 0 mm | - | 4 W/m² | - |
| 1777464325 | 16.67° C | 74% | 1016 hPa | 0 mm | - | 4 W/m² | - |
| 1777464020 | 16.67° C | 74% | 1016.1 hPa | 0 mm | - | 2 W/m² | - |
* Rain latest hour (hover to see other rain measurements)
** Current wind speed in m/s (hover to see current wind gust speed)